Time;durP1;ratioP1;P1;durP2;ratioP2;P2;SDS_P1;SDS_P2;PMS_P1;PMS_P2;Temp;Humidity;BMP_temperature;BMP_pressure;BME280_temperature;BME280_humidity;BME280_pressure;Samples;Min_cycle;Max_cycle;Signal;HPM_P1;HPM_P2
2022/05/13 00:00:53;;;;;;;6.40;3.50;;;;;;;13.95;50.53;100450.79;103962;1297;25623;-80
2022/05/13 00:03:20;;;;;;;8.70;3.40;;;;;;;13.90;50.58;100453.39;104149;1297;22555;-76
2022/05/13 00:05:50;;;;;;;8.30;3.40;;;;;;;13.84;50.67;100454.39;104407;1294;23893;-76
2022/05/13 00:08:17;;;;;;;8.40;3.40;;;;;;;13.78;50.85;100448.14;104787;1290;25608;-81
2022/05/13 00:10:44;;;;;;;8.20;3.40;;;;;;;13.75;50.99;100451.75;105323;1287;26801;-80
2022/05/13 00:13:11;;;;;;;6.90;3.40;;;;;;;13.71;51.08;100454.48;105075;1289;25567;-78
2022/05/13 00:15:42;;;;;;;3.20;2.60;;;;;;;13.67;51.17;100453.52;105241;1287;25379;-87
2022/05/13 00:18:10;;;;;;;6.80;3.00;;;;;;;13.64;51.17;100453.39;106086;1278;24267;-78
2022/05/13 00:20:37;;;;;;;6.90;3.10;;;;;;;13.59;51.33;100452.08;105989;1278;22587;-78
2022/05/13 00:23:05;;;;;;;5.20;3.30;;;;;;;13.58;51.41;100452.27;105996;1278;26641;-77
2022/05/13 00:25:35;;;;;;;11.00;3.50;;;;;;;13.55;51.32;100453.21;105979;1278;24369;-79
2022/05/13 00:28:05;;;;;;;7.20;3.50;;;;;;;13.51;51.62;100447.81;107368;1277;22560;-80
2022/05/13 00:30:36;;;;;;;8.30;3.30;;;;;;;13.54;51.70;100447.23;106034;1278;22518;-81
2022/05/13 00:33:04;;;;;;;6.80;3.10;;;;;;;13.52;51.78;100450.61;106568;1271;25247;-81
2022/05/13 00:35:32;;;;;;;8.00;3.30;;;;;;;13.53;51.90;100449.37;106400;1271;22603;-79
2022/05/13 00:37:59;;;;;;;5.20;2.70;;;;;;;13.50;51.94;100447.83;106599;1274;24322;-78
2022/05/13 00:40:27;;;;;;;10.00;4.50;;;;;;;13.46;51.94;100452.13;106323;1276;25255;-77
2022/05/13 00:43:04;;;;;;;8.50;3.30;;;;;;;13.43;52.14;100452.91;106963;1271;25356;-81
2022/05/13 00:45:32;;;;;;;4.80;3.20;;;;;;;13.33;52.25;100451.14;107043;1274;22578;-81
2022/05/13 00:48:00;;;;;;;6.30;2.80;;;;;;;13.29;52.27;100450.51;107264;1274;25289;-81
2022/05/13 00:50:52;;;;;;;4.80;2.90;;;;;;;13.28;52.48;100449.66;106907;1271;25235;-82
2022/05/13 00:53:20;;;;;;;5.50;3.20;;;;;;;13.25;52.56;100447.95;106429;1274;22604;-80
2022/05/13 00:55:48;;;;;;;6.50;3.30;;;;;;;13.24;52.58;100451.14;106523;1274;22528;-80
2022/05/13 00:58:17;;;;;;;7.60;3.70;;;;;;;13.19;52.71;100448.77;106313;1275;25305;-81
2022/05/13 01:00:45;;;;;;;5.30;3.20;;;;;;;13.23;52.88;100452.73;106697;1271;24183;-76
2022/05/13 01:03:15;;;;;;;9.70;3.50;;;;;;;13.24;52.79;100451.49;106519;1271;25236;-76
2022/05/13 01:05:47;;;;;;;6.20;3.50;;;;;;;13.23;52.79;100452.58;107074;1271;22661;-78
2022/05/13 01:08:15;;;;;;;8.50;3.90;;;;;;;13.22;52.93;100453.48;107318;1273;22756;-77
2022/05/13 01:10:44;;;;;;;4.50;3.10;;;;;;;13.23;52.88;100455.23;107192;1273;22578;-77
2022/05/13 01:13:15;;;;;;;5.90;3.50;;;;;;;13.23;53.03;100457.70;107458;1271;22686;-80
2022/05/13 01:15:43;;;;;;;9.40;3.20;;;;;;;13.22;52.86;100461.61;107371;1273;25313;-81
2022/05/13 01:18:11;;;;;;;6.30;3.60;;;;;;;13.17;52.88;100464.19;107019;1274;22851;-77
2022/05/13 01:20:46;;;;;;;6.90;3.40;;;;;;;13.15;52.93;100458.39;106985;1271;25363;-80
2022/05/13 01:23:45;;;;;;;9.80;3.60;;;;;;;13.14;52.99;100453.46;106574;1271;22868;-82
2022/05/13 01:26:16;;;;;;;6.40;3.10;;;;;;;13.13;53.07;100460.19;107184;1271;24168;-81
2022/05/13 01:28:49;;;;;;;6.30;3.00;;;;;;;13.12;52.99;100459.51;106788;1271;25190;-79
2022/05/13 01:31:26;;;;;;;6.10;3.30;;;;;;;13.12;52.95;100455.43;106508;1271;24203;-76
2022/05/13 01:33:53;;;;;;;7.50;2.90;;;;;;;13.18;53.06;100456.55;106710;1273;22794;-77
2022/05/13 01:36:21;;;;;;;4.60;3.00;;;;;;;13.22;53.03;100457.71;107231;1271;22859;-77
2022/05/13 01:38:49;;;;;;;6.70;2.60;;;;;;;13.29;52.94;100461.48;106583;1272;23212;-77
2022/05/13 01:41:16;;;;;;;4.50;3.00;;;;;;;13.27;52.62;100459.40;106464;1271;24076;-77
2022/05/13 01:43:46;;;;;;;6.20;2.90;;;;;;;13.28;52.51;100466.46;106365;1271;24228;-78
2022/05/13 01:46:13;;;;;;;5.80;2.90;;;;;;;13.30;52.51;100465.71;106162;1271;25360;-81
2022/05/13 01:48:43;;;;;;;9.50;3.00;;;;;;;13.30;52.46;100462.88;106149;1271;22547;-81
2022/05/13 01:51:11;;;;;;;5.80;3.20;;;;;;;13.28;52.68;100463.81;106153;1273;22535;-79
2022/05/13 01:53:38;;;;;;;9.40;3.40;;;;;;;13.24;52.63;100463.17;106460;1273;25970;-81
2022/05/13 01:56:05;;;;;;;5.30;3.40;;;;;;;13.19;52.79;100463.26;106509;1273;26491;-80
2022/05/13 01:58:33;;;;;;;5.30;3.20;;;;;;;13.17;52.79;100455.17;106250;1275;24725;-80
2022/05/13 02:01:04;;;;;;;6.90;3.00;;;;;;;13.13;52.80;100455.42;106422;1273;22570;-81
2022/05/13 02:03:44;;;;;;;5.90;3.00;;;;;;;13.05;52.98;100460.15;106568;1273;25380;-79
2022/05/13 02:06:18;;;;;;;7.10;2.90;;;;;;;13.04;53.11;100452.75;106322;1271;22541;-77
2022/05/13 02:08:46;;;;;;;8.00;3.20;;;;;;;12.99;53.14;100450.00;106311;1271;22538;-77
2022/05/13 02:11:14;;;;;;;5.00;3.20;;;;;;;13.01;53.29;100447.85;106250;1273;25400;-78
2022/05/13 02:13:41;;;;;;;7.10;3.50;;;;;;;13.00;53.46;100448.04;106102;1273;24365;-79
2022/05/13 02:16:08;;;;;;;6.00;3.40;;;;;;;13.00;53.48;100447.51;106364;1271;22734;-77
2022/05/13 02:18:36;;;;;;;8.70;3.40;;;;;;;13.03;53.43;100451.71;105954;1274;23930;-79
2022/05/13 02:21:03;;;;;;;4.00;3.10;;;;;;;13.03;53.50;100458.78;106148;1274;24479;-81
2022/05/13 02:23:30;;;;;;;3.80;3.10;;;;;;;13.01;53.43;100456.16;106050;1275;22643;-82
2022/05/13 02:26:00;;;;;;;6.30;3.10;;;;;;;12.98;53.36;100454.62;106180;1276;24798;-83
2022/05/13 02:28:27;;;;;;;6.10;3.20;;;;;;;12.94;53.39;100454.16;106474;1276;22546;-82
2022/05/13 02:30:55;;;;;;;11.00;3.10;;;;;;;12.92;53.44;100451.38;107072;1275;22867;-80
2022/05/13 02:33:22;;;;;;;4.50;3.40;;;;;;;12.86;53.62;100447.60;107986;1275;22500;-81
2022/05/13 02:35:50;;;;;;;5.80;3.00;;;;;;;12.88;53.76;100445.45;108375;1273;23090;-79
2022/05/13 02:38:17;;;;;;;4.00;3.10;;;;;;;12.88;53.73;100445.61;108819;1271;22800;-80
2022/05/13 02:43:34;;;;;;;6.40;3.30;;;;;;;12.84;53.71;100435.80;109291;1271;23837;-82
2022/05/13 02:46:01;;;;;;;8.00;3.10;;;;;;;12.78;53.89;100436.94;108957;1271;22980;-79
2022/05/13 02:48:28;;;;;;;8.30;2.80;;;;;;;12.70;53.97;100432.14;107090;1271;22531;-81
2022/05/13 02:50:56;;;;;;;5.10;2.50;;;;;;;12.66;53.95;100432.92;106571;1272;24171;-84
2022/05/13 02:53:24;;;;;;;5.20;3.40;;;;;;;12.60;54.07;100431.59;106149;1273;25307;-83
2022/05/13 02:55:51;;;;;;;7.80;3.30;;;;;;;12.65;54.24;100433.64;105806;1278;22780;-88
2022/05/13 02:58:18;;;;;;;6.30;3.10;;;;;;;12.67;54.39;100434.14;106185;1278;22549;-81
2022/05/13 03:00:45;;;;;;;5.60;3.50;;;;;;;12.66;54.25;100433.45;107180;1278;22680;-81
2022/05/13 03:03:13;;;;;;;6.60;2.80;;;;;;;12.63;54.30;100430.15;105729;1279;24109;-81
2022/05/13 03:05:40;;;;;;;6.20;3.20;;;;;;;12.58;54.60;100429.15;105775;1277;25527;-84
2022/05/13 03:08:08;;;;;;;5.60;3.10;;;;;;;12.55;54.73;100430.45;105862;1279;22573;-84
2022/05/13 03:10:38;;;;;;;6.30;3.50;;;;;;;12.50;54.81;100431.94;105724;1278;23187;-83
2022/05/13 03:13:07;;;;;;;6.60;3.20;;;;;;;12.44;54.89;100431.33;106323;1275;25304;-85
2022/05/13 03:15:35;;;;;;;9.10;3.40;;;;;;;12.44;55.01;100436.98;106258;1273;22709;-83
2022/05/13 03:18:03;;;;;;;6.00;2.90;;;;;;;12.43;55.07;100436.12;106214;1273;22750;-81
2022/05/13 03:20:30;;;;;;;5.00;3.10;;;;;;;12.36;55.08;100434.10;106223;1273;24090;-82
2022/05/13 03:22:58;;;;;;;5.00;3.20;;;;;;;12.28;55.13;100432.45;106537;1273;22529;-84
2022/05/13 03:25:25;;;;;;;7.50;2.80;;;;;;;12.21;55.33;100428.33;107445;1278;22501;-82
2022/05/13 03:27:52;;;;;;;5.60;3.10;;;;;;;12.17;55.55;100432.45;108574;1278;22798;-82
2022/05/13 03:30:26;;;;;;;3.60;2.80;;;;;;;12.16;55.74;100427.17;108316;1277;22502;-76
2022/05/13 03:32:57;;;;;;;6.50;3.30;;;;;;;12.15;55.65;100428.07;108828;1277;22552;-80
2022/05/13 03:35:24;;;;;;;10.10;3.40;;;;;;;12.12;55.91;100425.64;108772;1277;22559;-79
2022/05/13 03:37:51;;;;;;;7.30;3.00;;;;;;;12.12;55.89;100427.94;109072;1278;22589;-81
2022/05/13 03:40:18;;;;;;;4.60;2.60;;;;;;;12.14;55.94;100428.27;108893;1277;22587;-81
2022/05/13 03:42:45;;;;;;;5.50;3.50;;;;;;;12.12;55.71;100426.52;108974;1274;22551;-80
2022/05/13 03:45:15;;;;;;;8.80;3.20;;;;;;;12.09;55.92;100430.79;109502;1273;22681;-81
2022/05/13 03:47:44;;;;;;;7.00;3.00;;;;;;;12.11;56.00;100428.30;109496;1272;22916;-78
2022/05/13 03:50:12;;;;;;;6.30;3.40;;;;;;;12.11;56.04;100431.65;107273;1274;22679;-77
2022/05/13 03:52:42;;;;;;;8.60;3.50;;;;;;;12.15;56.04;100430.17;108771;1273;22567;-81
2022/05/13 03:55:11;;;;;;;5.00;3.10;;;;;;;12.19;55.99;100433.67;107676;1273;22703;-81
2022/05/13 03:57:38;;;;;;;6.70;3.40;;;;;;;12.20;55.83;100435.23;107460;1271;24008;-80
2022/05/13 04:00:09;;;;;;;6.50;3.10;;;;;;;12.21;55.88;100436.28;108831;1271;22562;-87
2022/05/13 04:02:39;;;;;;;5.00;2.80;;;;;;;12.20;55.77;100434.89;109626;1271;22590;-86
2022/05/13 04:10:48;;;;;;;6.10;3.00;;;;;;;12.26;55.73;100429.85;107391;1271;22680;-89
2022/05/13 04:16:06;;;;;;;7.80;3.20;;;;;;;12.29;55.58;100421.86;107228;1276;22552;-81
2022/05/13 04:18:40;;;;;;;6.00;2.90;;;;;;;12.34;55.48;100424.05;108861;1276;22482;-89
2022/05/13 04:21:32;;;;;;;6.00;2.80;;;;;;;12.41;55.36;100427.15;108701;1276;23070;-77
2022/05/13 04:24:04;;;;;;;4.20;3.00;;;;;;;12.45;55.36;100430.61;106404;1276;25658;-79
2022/05/13 04:26:32;;;;;;;12.00;3.20;;;;;;;12.50;55.23;100430.35;106243;1276;22667;-78
2022/05/13 04:29:01;;;;;;;4.40;3.00;;;;;;;12.59;55.01;100433.38;105967;1276;24159;-80
2022/05/13 04:31:31;;;;;;;4.20;2.80;;;;;;;12.67;54.90;100431.84;106076;1276;22537;-78
2022/05/13 04:33:59;;;;;;;5.30;3.00;;;;;;;12.71;54.62;100432.48;106643;1271;22602;-80
2022/05/13 04:36:27;;;;;;;5.80;3.40;;;;;;;12.72;54.47;100433.87;106475;1273;24263;-80
2022/05/13 04:38:55;;;;;;;5.50;2.90;;;;;;;12.74;54.44;100426.59;106314;1273;22566;-78
2022/05/13 04:44:13;;;;;;;9.90;2.80;;;;;;;12.87;54.04;100423.02;106333;1273;24215;-75
2022/05/13 04:46:40;;;;;;;6.10;2.90;;;;;;;12.90;53.95;100423.50;105917;1278;22763;-81
2022/05/13 04:49:08;;;;;;;3.90;2.70;;;;;;;12.90;53.73;100422.42;105410;1284;22729;-76
2022/05/13 04:51:36;;;;;;;6.10;2.80;;;;;;;12.92;53.84;100421.52;105630;1284;22555;-76
2022/05/13 04:54:06;;;;;;;5.30;3.00;;;;;;;12.93;53.70;100421.30;104844;1284;463286;-77
2022/05/13 04:56:34;;;;;;;10.40;2.90;;;;;;;12.99;53.60;100428.63;105331;1285;24291;-77
2022/05/13 04:59:03;;;;;;;6.00;3.00;;;;;;;13.02;53.63;100425.92;105579;1284;22576;-80
2022/05/13 05:01:30;;;;;;;4.80;2.80;;;;;;;13.07;53.48;100424.06;105459;1284;24265;-77
2022/05/13 05:03:58;;;;;;;6.30;2.70;;;;;;;13.11;53.43;100426.45;105425;1284;22544;-78
2022/05/13 05:06:25;;;;;;;6.40;2.80;;;;;;;13.16;53.41;100424.24;105185;1281;24457;-78
2022/05/13 05:08:53;;;;;;;6.60;2.60;;;;;;;13.25;53.36;100429.02;105746;1277;22538;-79
2022/05/13 05:11:24;;;;;;;3.80;2.30;;;;;;;13.35;53.35;100426.86;106014;1271;22526;-82
2022/05/13 05:13:53;;;;;;;6.10;2.60;;;;;;;13.43;53.08;100421.25;107163;1271;22622;-77
2022/05/13 05:16:22;;;;;;;5.30;2.90;;;;;;;13.50;52.65;100426.41;106418;1273;22571;-77
2022/05/13 05:18:51;;;;;;;4.50;2.70;;;;;;;13.55;52.46;100425.10;106283;1271;24340;-79
2022/05/13 05:21:19;;;;;;;12.90;2.90;;;;;;;13.59;52.28;100422.16;105925;1278;22868;-81
2022/05/13 05:23:49;;;;;;;6.80;3.00;;;;;;;13.64;52.39;100419.05;105820;1278;25248;-81
2022/05/13 05:26:18;;;;;;;6.40;2.80;;;;;;;13.70;52.32;100415.59;106160;1282;22547;-82
2022/05/13 05:28:46;;;;;;;5.40;2.60;;;;;;;13.77;52.18;100410.13;105284;1282;22735;-81
2022/05/13 05:31:15;;;;;;;5.10;2.90;;;;;;;13.83;51.78;100411.20;104652;1290;24415;-79
2022/05/13 05:33:43;;;;;;;7.90;2.70;;;;;;;13.88;51.64;100410.39;104103;1295;22798;-80
2022/05/13 05:36:10;;;;;;;7.20;2.90;;;;;;;13.96;51.59;100412.70;104220;1294;24292;-80
2022/05/13 05:38:38;;;;;;;5.70;3.10;;;;;;;14.03;51.33;100407.77;104584;1296;22787;-87
2022/05/13 05:41:05;;;;;;;7.20;2.50;;;;;;;14.03;50.84;100406.34;104747;1290;22550;-85
2022/05/13 05:43:35;;;;;;;5.60;2.20;;;;;;;14.06;50.91;100413.34;105474;1290;22800;-86
2022/05/13 05:46:03;;;;;;;3.90;2.00;;;;;;;14.09;50.94;100413.10;106111;1284;24275;-88
2022/05/13 05:48:32;;;;;;;5.60;2.40;;;;;;;14.13;50.93;100410.73;106544;1278;22515;-87
2022/05/13 05:50:59;;;;;;;6.20;2.10;;;;;;;14.20;50.82;100414.65;107518;1278;24229;-84
2022/05/13 05:59:04;;;;;;;4.90;2.30;;;;;;;14.43;50.38;100417.98;108782;1278;22578;-87
2022/05/13 06:01:31;;;;;;;7.10;2.30;;;;;;;14.52;50.19;100417.94;109440;1276;22656;-86
2022/05/13 06:03:59;;;;;;;3.20;1.90;;;;;;;14.61;49.86;100417.70;109330;1276;22628;-88
2022/05/13 06:06:26;;;;;;;2.80;1.90;;;;;;;14.71;49.53;100419.07;109451;1276;22711;-87
2022/05/13 06:08:55;;;;;;;11.50;2.10;;;;;;;14.81;49.27;100420.06;108536;1276;22548;-86
2022/05/13 06:11:24;;;;;;;4.70;1.60;;;;;;;14.89;48.91;100421.27;108127;1276;22712;-86
2022/05/13 06:13:56;;;;;;;5.10;1.70;;;;;;;14.95;48.37;100422.18;108822;1277;22537;-87
2022/05/13 06:16:26;;;;;;;7.30;1.40;;;;;;;15.00;48.32;100424.55;108558;1276;23210;-86
2022/05/13 06:18:54;;;;;;;6.10;2.10;;;;;;;15.04;48.12;100425.12;107762;1276;22565;-87
2022/05/13 06:21:22;;;;;;;4.20;1.90;;;;;;;15.09;47.92;100418.63;108063;1273;22535;-86
2022/05/13 06:23:49;;;;;;;4.40;1.50;;;;;;;15.13;47.84;100420.63;108792;1272;22556;-88
2022/05/13 06:26:16;;;;;;;8.90;1.90;;;;;;;15.19;47.52;100422.24;108794;1273;22780;-88
2022/05/13 06:28:43;;;;;;;5.40;1.70;;;;;;;15.23;47.25;100415.58;106647;1278;22592;-87
2022/05/13 06:31:10;;;;;;;4.40;1.70;;;;;;;15.28;47.36;100418.43;106236;1278;22566;-85
2022/05/13 06:33:38;;;;;;;6.50;1.80;;;;;;;15.33;47.28;100417.59;106262;1277;24261;-88
2022/05/13 06:36:06;;;;;;;4.80;1.50;;;;;;;15.39;46.97;100415.66;105986;1277;22535;-85
2022/05/13 06:38:34;;;;;;;2.70;1.80;;;;;;;15.47;46.87;100417.57;106144;1277;22554;-87
2022/05/13 06:41:01;;;;;;;4.50;1.50;;;;;;;15.54;46.43;100410.42;108374;1277;22396;-88
2022/05/13 06:43:30;;;;;;;3.10;1.30;;;;;;;15.61;46.67;100413.08;107211;1277;22975;-86
2022/05/13 06:45:57;;;;;;;4.50;1.40;;;;;;;15.69;46.15;100408.92;106053;1278;24300;-86
2022/05/13 06:48:25;;;;;;;5.70;1.40;;;;;;;15.76;45.80;100408.00;106042;1277;22568;-85
2022/05/13 06:50:53;;;;;;;4.00;1.50;;;;;;;15.82;45.83;100406.05;105971;1277;22563;-89
2022/05/13 06:53:22;;;;;;;4.10;1.10;;;;;;;15.89;45.25;100400.34;106290;1274;24326;-87
2022/05/13 06:55:50;;;;;;;4.30;1.40;;;;;;;15.94;44.80;100404.79;106343;1273;22760;-86
2022/05/13 06:58:18;;;;;;;4.90;1.30;;;;;;;15.96;44.58;100402.77;106540;1273;22708;-88
2022/05/13 07:00:47;;;;;;;5.60;1.20;;;;;;;16.01;44.67;100402.13;106655;1273;24159;-90
2022/05/13 07:03:16;;;;;;;3.80;1.10;;;;;;;16.08;44.75;100405.99;106497;1273;22557;-87
2022/05/13 07:05:45;;;;;;;5.60;1.40;;;;;;;16.17;44.32;100402.33;106569;1273;22573;-88
2022/05/13 07:08:13;;;;;;;4.20;1.30;;;;;;;16.24;44.23;100400.53;106606;1274;25628;-84
2022/05/13 07:10:41;;;;;;;6.00;1.50;;;;;;;16.30;43.55;100400.48;106004;1278;24355;-90
2022/05/13 07:13:10;;;;;;;3.70;1.10;;;;;;;16.34;43.16;100393.45;106163;1278;22598;-87
2022/05/13 07:15:37;;;;;;;2.20;0.90;;;;;;;16.42;43.49;100394.41;106232;1278;22560;-87
2022/05/13 07:18:05;;;;;;;2.80;0.80;;;;;;;16.51;43.40;100389.14;106091;1278;22547;-88
2022/05/13 07:20:33;;;;;;;2.40;1.00;;;;;;;16.60;42.92;100391.13;106146;1278;23746;-87
2022/05/13 07:23:00;;;;;;;4.00;1.50;;;;;;;16.69;42.01;100390.66;105855;1278;22937;-89
2022/05/13 07:25:31;;;;;;;3.80;1.10;;;;;;;16.75;41.84;100382.98;106803;1278;25479;-89
2022/05/13 07:27:58;;;;;;;2.00;1.00;;;;;;;16.81;41.50;100381.19;106003;1275;25230;-89
2022/05/13 07:30:25;;;;;;;1.30;0.80;;;;;;;16.87;41.75;100382.21;106284;1273;25350;-89
2022/05/13 07:32:53;;;;;;;2.40;1.00;;;;;;;16.94;41.24;100380.73;106627;1273;24778;-89
2022/05/13 07:35:20;;;;;;;1.80;1.00;;;;;;;17.00;41.02;100376.08;106723;1273;22712;-88
2022/05/13 07:37:47;;;;;;;2.50;1.10;;;;;;;17.05;41.12;100382.27;107267;1273;22525;-89
2022/05/13 07:43:03;;;;;;;4.10;1.10;;;;;;;17.16;40.54;100388.33;107499;1273;22528;-88
2022/05/13 07:45:31;;;;;;;3.00;1.30;;;;;;;17.18;40.44;100380.77;107135;1273;22601;-88
2022/05/13 07:48:01;;;;;;;3.00;1.10;;;;;;;17.24;40.49;100374.34;106847;1273;24308;-87
2022/05/13 07:50:29;;;;;;;4.60;0.90;;;;;;;17.33;40.61;100371.01;108522;1273;22528;-87
2022/05/13 07:52:57;;;;;;;3.00;0.90;;;;;;;17.42;39.91;100380.09;107538;1275;25375;-86
2022/05/13 07:55:24;;;;;;;3.10;0.70;;;;;;;17.47;39.30;100374.38;105997;1276;24295;-86
2022/05/13 07:57:51;;;;;;;2.50;1.10;;;;;;;17.54;38.62;100373.59;106079;1276;22788;-89
2022/05/13 08:00:27;;;;;;;2.70;1.30;;;;;;;17.62;38.55;100372.38;106329;1276;23944;-87
2022/05/13 08:03:04;;;;;;;1.60;1.00;;;;;;;17.69;38.58;100369.07;106249;1277;26800;-88
2022/05/13 08:05:40;;;;;;;2.70;0.80;;;;;;;17.82;38.49;100377.67;108239;1276;22614;-89
2022/05/13 08:08:16;;;;;;;4.30;1.00;;;;;;;17.93;38.11;100371.33;106109;1275;22525;-88
2022/05/13 08:10:52;;;;;;;1.60;1.00;;;;;;;18.07;38.12;100369.38;106243;1272;22762;-88
2022/05/13 08:13:19;;;;;;;3.30;1.10;;;;;;;18.17;37.67;100375.79;106650;1273;22658;-87
2022/05/13 08:15:48;;;;;;;3.10;1.10;;;;;;;18.23;37.48;100375.35;106381;1273;22827;-89
2022/05/13 08:18:18;;;;;;;5.00;1.00;;;;;;;18.28;37.59;100361.73;107042;1273;24247;-89
2022/05/13 08:20:46;;;;;;;3.20;1.10;;;;;;;18.37;37.15;100368.90;108539;1272;23176;-87
2022/05/13 08:23:14;;;;;;;5.90;1.10;;;;;;;18.40;36.67;100365.02;109047;1273;22547;-89
2022/05/13 08:25:41;;;;;;;3.40;0.80;;;;;;;18.43;36.92;100364.35;108015;1272;22581;-88
2022/05/13 08:28:09;;;;;;;2.40;1.30;;;;;;;18.47;36.83;100363.67;106795;1276;22833;-89
2022/05/13 08:30:37;;;;;;;2.10;1.00;;;;;;;18.54;36.96;100361.92;107002;1273;25494;-88
2022/05/13 08:33:08;;;;;;;3.30;1.20;;;;;;;18.62;37.03;100355.55;108106;1272;22743;-88
2022/05/13 08:35:45;;;;;;;2.30;1.20;;;;;;;18.66;37.07;100343.06;109020;1273;22802;-88
2022/05/13 08:38:16;;;;;;;5.80;1.40;;;;;;;18.82;36.89;100353.77;106845;1275;22756;-87
2022/05/13 08:40:52;;;;;;;5.10;1.40;;;;;;;18.89;36.40;100353.46;106720;1273;25896;-88
2022/05/13 08:43:28;;;;;;;15.20;1.50;;;;;;;18.93;36.04;100350.41;107552;1273;25371;-83
2022/05/13 08:46:01;;;;;;;6.60;1.20;;;;;;;19.04;35.74;100352.08;106506;1275;25632;-86
2022/05/13 08:48:57;;;;;;;6.60;2.10;;;;;;;19.10;34.83;100349.88;106385;1273;24022;-90
2022/05/13 08:51:37;;;;;;;4.70;0.90;;;;;;;19.23;35.28;100343.77;106300;1273;25690;-89
2022/05/13 08:54:13;;;;;;;3.80;1.00;;;;;;;19.35;35.22;100337.34;106513;1272;26614;-88
2022/05/13 08:56:47;;;;;;;1.10;0.80;;;;;;;19.48;35.03;100330.48;106383;1271;24200;-87
2022/05/13 08:59:43;;;;;;;1.20;0.70;;;;;;;19.57;34.62;100334.89;107416;1272;22530;-88
2022/05/13 09:02:21;;;;;;;2.40;1.00;;;;;;;19.59;34.48;100330.52;106171;1280;22547;-88
2022/05/13 09:05:28;;;;;;;3.10;1.00;;;;;;;19.55;34.04;100335.34;105942;1281;25282;-90
2022/05/13 09:07:56;;;;;;;2.50;0.90;;;;;;;19.54;33.95;100333.23;105879;1281;22536;-87
2022/05/13 09:10:25;;;;;;;2.10;0.80;;;;;;;19.59;34.27;100328.72;106605;1283;25569;-87
2022/05/13 09:13:10;;;;;;;3.30;1.20;;;;;;;19.74;34.26;100325.34;106791;1284;22683;-88
2022/05/13 09:15:48;;;;;;;1.80;0.80;;;;;;;19.91;34.16;100332.18;107863;1283;22602;-88
2022/05/13 09:18:31;;;;;;;2.10;0.80;;;;;;;20.06;33.80;100314.49;107969;1284;24310;-87
2022/05/13 09:21:02;;;;;;;2.90;1.00;;;;;;;20.17;32.48;100315.73;108365;1284;22875;-88
2022/05/13 09:23:32;;;;;;;3.50;1.00;;;;;;;20.11;32.51;100324.08;108747;1284;22726;-87
2022/05/13 09:26:20;;;;;;;1.10;0.90;;;;;;;20.14;32.21;100317.85;108544;1284;22577;-89
2022/05/13 09:29:11;;;;;;;2.10;1.10;;;;;;;20.12;32.16;100313.50;108244;1286;22573;-88
2022/05/13 09:31:55;;;;;;;4.50;0.90;;;;;;;20.20;32.07;100302.73;108280;1286;22733;-87
2022/05/13 09:34:42;;;;;;;5.20;1.10;;;;;;;20.16;32.42;100297.17;108155;1287;22678;-88
2022/05/13 09:37:24;;;;;;;3.40;1.00;;;;;;;20.11;32.36;100295.30;108661;1283;22735;-89
2022/05/13 09:40:09;;;;;;;1.60;0.80;;;;;;;19.96;32.60;100293.52;108906;1276;22692;-87
2022/05/13 09:42:51;;;;;;;1.60;0.70;;;;;;;19.83;32.72;100289.67;109509;1278;22701;-83
2022/05/13 09:45:25;;;;;;;2.00;1.10;;;;;;;19.70;32.63;100284.77;109466;1276;22686;-90
2022/05/13 09:48:24;;;;;;;2.90;0.80;;;;;;;19.65;32.79;100287.52;109674;1272;22439;-87
2022/05/13 09:50:55;;;;;;;3.40;1.30;;;;;;;19.85;33.05;100280.98;109810;1273;22466;-90
2022/05/13 09:53:22;;;;;;;4.10;0.70;;;;;;;20.17;32.56;100271.42;109785;1271;22348;-89
2022/05/13 09:55:52;;;;;;;6.60;1.00;;;;;;;20.44;32.53;100272.54;109411;1271;23695;-90
2022/05/13 09:58:33;;;;;;;1.70;0.80;;;;;;;20.71;31.53;100257.33;109790;1273;22316;-90
2022/05/13 10:01:13;;;;;;;2.40;1.10;;;;;;;20.82;30.94;100258.55;109561;1271;22735;-91
2022/05/13 10:03:46;;;;;;;2.60;1.10;;;;;;;20.82;30.62;100261.23;109656;1271;22527;-88
2022/05/13 10:06:20;;;;;;;2.40;0.90;;;;;;;20.91;30.40;100254.67;109391;1271;22649;-90
2022/05/13 10:08:52;;;;;;;1.20;0.60;;;;;;;21.08;30.41;100251.77;108863;1272;22667;-90
2022/05/13 10:14:36;;;;;;;3.70;0.90;;;;;;;21.38;30.28;100244.55;109362;1273;22596;-88
2022/05/13 10:17:22;;;;;;;3.20;1.00;;;;;;;21.41;29.84;100237.98;109225;1275;22738;-89
2022/05/13 10:19:54;;;;;;;4.70;1.00;;;;;;;21.49;29.41;100230.02;108057;1276;22579;-87
2022/05/13 10:22:37;;;;;;;4.10;1.10;;;;;;;21.56;29.58;100229.62;108286;1276;22561;-89
2022/05/13 10:25:21;;;;;;;1.60;0.80;;;;;;;21.50;29.49;100229.73;107852;1276;22652;-90
2022/05/13 10:27:58;;;;;;;3.40;1.00;;;;;;;21.56;29.11;100227.29;108932;1276;22564;-89
2022/05/13 10:30:47;;;;;;;2.30;0.60;;;;;;;21.69;29.09;100229.73;109728;1271;22824;-90
2022/05/13 10:33:36;;;;;;;3.80;1.20;;;;;;;21.57;28.64;100233.13;109685;1271;22371;-90
2022/05/13 10:36:41;;;;;;;4.80;1.10;;;;;;;21.38;29.23;100233.34;107450;1272;22684;-89
2022/05/13 10:39:30;;;;;;;3.50;0.90;;;;;;;21.35;29.48;100225.23;108990;1271;22551;-87
2022/05/13 10:42:06;;;;;;;3.40;0.80;;;;;;;21.25;28.79;100219.70;109360;1272;23882;-88
2022/05/13 10:45:17;;;;;;;2.90;1.20;;;;;;;21.22;28.85;100214.65;108713;1273;23270;-88
2022/05/13 10:48:03;;;;;;;5.80;0.90;;;;;;;21.60;28.94;100216.83;107044;1281;25917;-89
2022/05/13 10:50:38;;;;;;;2.80;1.00;;;;;;;21.67;28.67;100200.64;108950;1271;22758;-83
2022/05/13 10:53:19;;;;;;;3.60;1.10;;;;;;;21.54;28.56;100205.90;109231;1272;22962;-89
2022/05/13 10:56:04;;;;;;;1.00;0.70;;;;;;;21.26;28.77;100206.77;107704;1272;22548;-93
2022/05/13 10:58:53;;;;;;;3.70;1.30;;;;;;;21.15;29.19;100203.80;106706;1271;22871;-89
2022/05/13 11:01:39;;;;;;;1.60;0.90;;;;;;;21.03;29.19;100205.73;106419;1281;22567;-90
2022/05/13 11:04:28;;;;;;;1.20;0.80;;;;;;;21.08;29.30;100209.38;106269;1281;22593;-88
2022/05/13 11:07:14;;;;;;;3.60;1.20;;;;;;;21.46;29.29;100204.70;106292;1281;22746;-88
2022/05/13 11:10:05;;;;;;;4.90;1.40;;;;;;;21.82;28.65;100195.85;106160;1281;22743;-88
2022/05/13 11:12:45;;;;;;;2.90;1.00;;;;;;;21.90;28.24;100191.28;106208;1279;24664;-89
2022/05/13 11:15:32;;;;;;;4.80;1.10;;;;;;;21.77;28.07;100189.89;106270;1281;22754;-88
2022/05/13 11:18:21;;;;;;;3.50;1.20;;;;;;;21.69;28.53;100193.39;106200;1281;25377;-88
2022/05/13 11:21:23;;;;;;;5.10;1.20;;;;;;;21.67;28.37;100193.70;106637;1278;24329;-89
2022/05/13 11:28:02;;;;;;;2.20;0.90;;;;;;;22.00;28.00;100169.52;105573;1284;24073;-89
2022/05/13 11:30:38;;;;;;;2.90;1.30;;;;;;;22.26;28.23;100178.19;105781;1288;22556;-89
2022/05/13 11:33:11;;;;;;;2.20;1.40;;;;;;;22.21;28.30;100181.52;106365;1287;22517;-89
2022/05/13 11:35:47;;;;;;;2.20;1.00;;;;;;;21.97;28.37;100181.73;106272;1287;23110;-88
2022/05/13 11:38:22;;;;;;;2.20;1.10;;;;;;;21.78;28.69;100190.73;106365;1285;24243;-90
2022/05/13 11:41:13;;;;;;;2.80;1.00;;;;;;;21.64;28.70;100185.23;107053;1284;23980;-88
2022/05/13 11:44:04;;;;;;;3.10;1.10;;;;;;;21.41;29.32;100175.98;107761;1284;22547;-89
2022/05/13 11:47:01;;;;;;;2.60;1.10;;;;;;;21.67;29.41;100178.27;106686;1284;22672;-89
2022/05/13 11:49:29;;;;;;;;;;;;;;;21.92;28.61;100173.61;106645;1279;25228;-88
2022/05/13 11:52:22;;;;;;;2.90;1.30;;;;;;;21.88;28.91;100173.85;106505;1279;22491;-88
2022/05/13 11:55:18;;;;;;;2.60;1.00;;;;;;;21.80;28.83;100168.23;106318;1280;22831;-90
2022/05/13 11:57:50;;;;;;;2.10;1.10;;;;;;;21.77;28.87;100168.34;106615;1279;22560;-89
2022/05/13 12:00:33;;;;;;;4.90;1.10;;;;;;;22.01;28.90;100162.81;105575;1284;24237;-88
2022/05/13 12:03:08;;;;;;;3.20;1.30;;;;;;;22.26;28.25;100163.30;105359;1285;26185;-90
2022/05/13 12:05:56;;;;;;;2.80;1.40;;;;;;;22.35;28.22;100160.07;106250;1279;24362;-91
2022/05/13 12:08:31;;;;;;;3.10;1.40;;;;;;;22.21;28.54;100153.95;106156;1278;22724;-91
2022/05/13 12:11:02;;;;;;;7.30;1.50;;;;;;;22.09;28.94;100153.04;106026;1281;22754;-87